Archival Weather

Norman Y Mineta San Jose Intl

San Jose, California (KSJC)

Report from: Tuesday, September 19, 2023 7:53 AM PDT
Current time: Monday, June 17, 2024 3:15 AM PDT

Current weather – Weather history – Daily summaries
Weather forecast

Temperature16.7°C (62.1°F)
Dew point12.2°C (54.0°F)
Winds Calm
Visibility9 mi. (14.5 km)
Clouds Few clouds 300 ft. (91 m)
Few clouds 2,100 ft. (640 m)
Altimeter29.99 in.Hg (1016 mB)
Relative humidity75 %
Density altitude330 ft. (101 m)
Sea-level pressure101.5 kPa (1015 mB, 29.98 in.Hg)
Remarks Automated weather observing station with precipitation discriminator
Pressure rising more quickly
Flight conditions Visual Meteorological Conditions
Raw dataKSJC 191453Z 00000KT 9SM FEW003 FEW021 17/12 A2999 RMK AO2 SLP153 T01670122 53002
An error has occurred. This application may no longer respond until reloaded. Reload 🗙